In Rescue
 
Open Full Screen Window  High Contrast Mode
Wind Gusting 00 knots
07
April 19, 2021 7:23 PM CDT
Weather Information
Wind Direction
  330 °
Wind Speed
  07 kt (8 mph)
Wind Gust
  00 kt (0 mph)
Altimeter
30.02 in
Visibility
10 SM
Temperature
02° C
36° F
Dewpoint
-07° C
19° F
Humidity
52%
1hr Rain Fall
00.00 in.
24hr Rain Fall
00.00 in.
Sky Condition
Broken @ 5,500 ft
Broken @ 4,800 ft
VFR

METAR KFKA 200023Z AUTO 33007KT 10SM BKN048 BKN055 02/M07 A3002 RMK AO2 T00181075

FAA Disclaimer: The data displayed is for advisory purposes only and is not to be used for flight planning or operations.